Time;durP1;ratioP1;P1;durP2;ratioP2;P2;SDS_P1;SDS_P2;PMS_P1;PMS_P2;Temp;Humidity;BMP_temperature;BMP_pressure;BME280_temperature;BME280_humidity;BME280_pressure;Samples;Min_cycle;Max_cycle;Signal;HPM_P1;HPM_P2
2022/03/11 00:00:42;;;;;;;10.13;7.75;;;6.20;91.00;;;;;;5065160;28;20513;-83
2022/03/11 00:03:10;;;;;;;10.77;7.97;;;6.10;90.90;;;;;;5048056;28;20094;-82
2022/03/11 00:05:36;;;;;;;10.15;7.72;;;6.10;90.90;;;;;;5032752;28;20041;-82
2022/03/11 00:08:02;;;;;;;10.68;8.27;;;6.10;90.90;;;;;;5055968;28;20399;-83
2022/03/11 00:10:30;;;;;;;17.00;8.98;;;6.00;91.00;;;;;;5061853;28;20729;-83
2022/03/11 00:12:55;;;;;;;12.48;7.28;;;6.00;91.00;;;;;;5061457;28;20045;-82
2022/03/11 00:15:21;;;;;;;10.82;7.75;;;6.00;91.10;;;;;;5067308;28;20127;-82
2022/03/11 00:17:47;;;;;;;12.75;8.18;;;5.90;91.20;;;;;;5070325;28;20037;-82
2022/03/11 00:20:19;;;;;;;10.52;7.93;;;5.90;91.40;;;;;;5062805;28;20135;-81
2022/03/11 00:22:48;;;;;;;8.95;7.38;;;5.90;91.20;;;;;;5040764;28;20465;-81
2022/03/11 00:25:13;;;;;;;13.48;8.38;;;5.90;91.20;;;;;;5050814;28;20051;-82
2022/03/11 00:27:40;;;;;;;9.57;7.10;;;5.80;91.30;;;;;;5068101;28;20460;-82
2022/03/11 00:30:06;;;;;;;14.10;8.80;;;5.80;91.40;;;;;;5045943;28;20532;-82
2022/03/11 00:32:32;;;;;;;9.55;6.90;;;5.70;91.50;;;;;;5030555;28;20468;-84
2022/03/11 00:34:58;;;;;;;11.48;8.45;;;5.70;91.50;;;;;;5050700;28;20041;-81
2022/03/11 00:37:24;;;;;;;10.90;6.90;;;5.70;91.60;;;;;;5061168;28;20106;-81
2022/03/11 00:39:50;;;;;;;9.75;7.30;;;5.60;91.60;;;;;;5063433;28;20044;-82
2022/03/11 00:42:16;;;;;;;10.63;7.18;;;5.60;91.70;;;;;;5067136;28;20414;-82
2022/03/11 00:44:41;;;;;;;8.57;6.35;;;5.60;91.80;;;;;;5051592;28;20037;-82
2022/03/11 00:47:08;;;;;;;8.98;7.22;;;5.50;91.80;;;;;;5044823;28;20036;-81
2022/03/11 00:49:33;;;;;;;10.18;6.75;;;5.50;92.00;;;;;;5056705;28;20148;-81
2022/03/11 00:52:03;;;;;;;9.05;6.63;;;5.50;92.10;;;;;;5063040;28;20481;-82
2022/03/11 00:54:29;;;;;;;9.10;6.80;;;5.40;92.20;;;;;;5051415;28;20040;-82
2022/03/11 00:56:55;;;;;;;9.05;6.55;;;5.40;92.30;;;;;;5060021;28;20087;-82
2022/03/11 00:59:20;;;;;;;9.18;6.65;;;5.30;92.40;;;;;;5050946;28;20045;-82
2022/03/11 01:01:46;;;;;;;10.23;7.00;;;5.40;92.60;;;;;;5064674;28;20542;-82
2022/03/11 01:04:11;;;;;;;11.75;6.22;;;5.20;93.00;;;;;;5068576;28;20071;-82
2022/03/11 01:06:37;;;;;;;12.68;7.72;;;5.20;93.00;;;;;;5068056;28;20485;-82
2022/03/11 01:09:03;;;;;;;11.40;7.55;;;5.10;93.00;;;;;;5061142;28;20051;-83
2022/03/11 01:11:28;;;;;;;8.38;6.05;;;6.50;93.40;;;;;;5050102;28;20403;-82
2022/03/11 01:13:54;;;;;;;11.57;6.22;;;7.00;93.70;;;;;;5066478;28;20079;-82
2022/03/11 01:16:21;;;;;;;7.78;6.10;;;5.30;93.50;;;;;;5067256;28;20395;-81
2022/03/11 01:18:47;;;;;;;7.82;6.53;;;5.00;93.40;;;;;;5060549;28;20552;-81
2022/03/11 01:21:13;;;;;;;7.93;5.45;;;3.50;93.30;;;;;;5067056;28;20044;-82
2022/03/11 01:23:38;;;;;;;8.05;6.32;;;5.00;93.70;;;;;;5060537;28;20041;-83
2022/03/11 01:26:04;;;;;;;10.77;6.20;;;4.90;94.00;;;;;;5067387;28;20048;-82
2022/03/11 01:28:30;;;;;;;10.27;6.63;;;4.80;94.30;;;;;;5041027;28;20049;-81
2022/03/11 01:30:55;;;;;;;7.45;6.15;;;4.90;94.40;;;;;;5064507;28;20047;-82
2022/03/11 01:33:22;;;;;;;11.63;6.75;;;4.80;94.70;;;;;;5057581;28;20123;-82
2022/03/11 01:35:48;;;;;;;11.60;6.63;;;4.70;94.70;;;;;;5072095;28;20068;-81
2022/03/11 01:38:14;;;;;;;10.68;6.90;;;4.70;95.10;;;;;;5065083;28;20048;-83
2022/03/11 01:40:40;;;;;;;9.68;6.15;;;4.70;95.10;;;;;;5047452;28;20562;-82
2022/03/11 01:43:15;;;;;;;9.45;6.22;;;4.60;95.30;;;;;;5049483;28;20040;-82
2022/03/11 01:45:41;;;;;;;8.90;6.15;;;4.50;95.90;;;;;;5033801;28;20033;-82
2022/03/11 01:48:09;;;;;;;8.48;6.38;;;4.50;96.20;;;;;;5045269;28;20050;-81
2022/03/11 01:50:35;;;;;;;8.75;6.50;;;4.50;96.10;;;;;;5049919;28;20399;-81
2022/03/11 01:53:00;;;;;;;9.52;6.40;;;4.50;96.30;;;;;;5067149;28;20048;-81
2022/03/11 01:55:26;;;;;;;9.38;6.00;;;4.40;96.70;;;;;;5047381;28;20093;-82
2022/03/11 01:57:52;;;;;;;10.45;7.03;;;4.40;96.60;;;;;;5045414;28;20492;-81
2022/03/11 02:00:20;;;;;;;13.05;6.60;;;4.40;97.40;;;;;;5060201;28;20076;-82
2022/03/11 02:02:46;;;;;;;14.90;7.57;;;4.30;97.50;;;;;;5063182;28;20079;-82
2022/03/11 02:05:14;;;;;;;9.02;6.65;;;4.20;97.70;;;;;;5049038;28;20028;-82
2022/03/11 02:07:40;;;;;;;8.85;6.60;;;4.20;98.20;;;;;;5065795;28;20052;-82
2022/03/11 02:10:06;;;;;;;13.30;6.63;;;6.00;98.60;;;;;;5057276;28;20495;-83
2022/03/11 02:12:37;;;;;;;11.55;6.93;;;4.20;98.30;;;;;;5049602;28;20457;-83
2022/03/11 02:15:07;;;;;;;8.77;6.50;;;4.20;98.60;;;;;;5064264;28;20363;-81
2022/03/11 02:17:32;;;;;;;13.85;7.82;;;4.10;98.80;;;;;;5065227;28;20036;-82
2022/03/11 02:19:58;;;;;;;12.45;6.95;;;4.10;98.70;;;;;;5065887;28;20044;-81
2022/03/11 02:22:25;;;;;;;9.77;7.07;;;4.10;98.90;;;;;;5032201;28;20043;-82
2022/03/11 02:24:52;;;;;;;15.25;7.68;;;4.00;99.30;;;;;;5066816;28;20493;-82
2022/03/11 02:27:19;;;;;;;13.43;7.60;;;3.90;99.30;;;;;;5031260;28;20077;-82
2022/03/11 02:29:47;;;;;;;10.00;6.82;;;4.00;99.70;;;;;;5066256;28;20119;-81
2022/03/11 02:32:13;;;;;;;10.05;7.13;;;4.00;99.90;;;;;;5065979;28;20428;-81
2022/03/11 02:34:38;;;;;;;11.57;8.13;;;3.90;99.90;;;;;;5063743;28;20037;-82
2022/03/11 02:37:09;;;;;;;12.35;7.40;;;3.80;99.90;;;;;;5062390;28;20048;-82
2022/03/11 02:39:35;;;;;;;13.43;8.50;;;5.50;99.90;;;;;;5063631;28;20531;-82
2022/03/11 02:42:03;;;;;;;10.85;7.60;;;3.80;99.90;;;;;;5058331;28;20049;-82
2022/03/11 02:44:31;;;;;;;13.10;8.23;;;3.80;99.90;;;;;;5065449;28;20067;-82
2022/03/11 02:46:59;;;;;;;12.57;8.52;;;3.70;99.90;;;;;;5066462;28;20071;-82
2022/03/11 02:49:26;;;;;;;11.63;8.00;;;3.70;99.90;;;;;;5048314;28;20040;-82
2022/03/11 02:51:53;;;;;;;12.32;8.45;;;;;;;;;;5049690;28;20529;-81
2022/03/11 02:54:18;;;;;;;14.57;8.25;;;3.70;99.90;;;;;;5065737;28;20037;-82
2022/03/11 02:56:44;;;;;;;13.43;7.75;;;3.70;99.90;;;;;;5046505;28;20056;-82
2022/03/11 02:59:10;;;;;;;11.80;8.23;;;3.60;99.90;;;;;;5042323;28;20395;-82
2022/03/11 03:01:35;;;;;;;15.60;9.27;;;3.60;99.90;;;;;;5066085;28;20864;-82
2022/03/11 03:04:01;;;;;;;16.92;8.70;;;3.60;99.90;;;;;;5068217;28;20048;-82
2022/03/11 03:06:26;;;;;;;12.75;8.43;;;2.20;99.90;;;;;;5053221;28;20040;-81
2022/03/11 03:08:52;;;;;;;13.88;9.15;;;3.00;99.90;;;;;;5069620;28;20126;-82
2022/03/11 03:11:19;;;;;;;13.65;9.40;;;3.50;99.90;;;;;;5067379;28;20329;-82
2022/03/11 03:13:45;;;;;;;14.02;9.40;;;3.60;99.90;;;;;;5068970;28;20080;-81
2022/03/11 03:16:11;;;;;;;15.65;9.80;;;5.70;99.90;;;;;;5045244;28;20521;-81
2022/03/11 03:18:36;;;;;;;15.70;9.27;;;3.60;99.90;;;;;;5051862;28;20053;-81
2022/03/11 03:21:02;;;;;;;15.13;10.00;;;4.20;99.90;;;;;;5051797;28;20060;-82
2022/03/11 03:23:28;;;;;;;16.42;10.68;;;4.10;99.90;;;;;;5064460;28;20063;-82
2022/03/11 03:25:54;;;;;;;17.30;10.48;;;4.00;99.90;;;;;;5066099;28;20123;-82
2022/03/11 03:28:20;;;;;;;18.27;10.95;;;3.40;99.90;;;;;;5069080;28;20044;-82
2022/03/11 03:30:46;;;;;;;14.27;10.25;;;3.50;99.90;;;;;;5068660;28;20063;-81
2022/03/11 03:33:14;;;;;;;14.85;10.88;;;5.20;99.90;;;;;;5059690;28;20072;-82
2022/03/11 03:35:40;;;;;;;16.90;11.23;;;3.40;99.90;;;;;;5068786;28;20530;-81
2022/03/11 03:38:05;;;;;;;16.50;11.50;;;3.40;99.90;;;;;;5068074;28;20105;-81
2022/03/11 03:40:31;;;;;;;15.15;11.45;;;2.50;99.90;;;;;;5069720;28;20033;-82
2022/03/11 03:42:57;;;;;;;15.85;11.43;;;3.40;99.90;;;;;;5067470;28;20052;-82
2022/03/11 03:45:22;;;;;;;19.92;12.43;;;3.40;99.90;;;;;;5068789;28;20075;-82
2022/03/11 03:47:48;;;;;;;14.48;10.88;;;3.50;99.90;;;;;;5061429;28;20053;-82
2022/03/11 03:50:14;;;;;;;20.48;12.18;;;3.20;99.90;;;;;;5067538;28;20064;-82
2022/03/11 03:52:40;;;;;;;22.80;12.52;;;3.30;99.90;;;;;;5051555;28;20044;-81
2022/03/11 03:55:07;;;;;;;18.08;12.18;;;3.40;99.90;;;;;;5051703;28;20364;-82
2022/03/11 03:57:32;;;;;;;19.95;13.15;;;3.40;99.90;;;;;;5068776;28;20367;-81
2022/03/11 03:59:58;;;;;;;22.15;13.45;;;5.50;99.90;;;;;;5064683;28;20577;-83
2022/03/11 04:02:24;;;;;;;18.88;12.02;;;3.30;99.90;;;;;;5066542;28;20248;-81
2022/03/11 04:04:49;;;;;;;19.08;12.50;;;3.20;99.90;;;;;;5046955;28;20050;-82
2022/03/11 04:07:15;;;;;;;20.20;12.80;;;3.30;99.90;;;;;;5046531;28;20558;-82
2022/03/11 04:09:41;;;;;;;21.65;12.20;;;3.50;99.90;;;;;;5064472;28;20058;-81
2022/03/11 04:12:09;;;;;;;18.73;12.40;;;3.20;99.90;;;;;;5065227;28;20044;-80
2022/03/11 04:14:35;;;;;;;21.67;12.80;;;3.30;99.90;;;;;;5061683;28;20123;-81
2022/03/11 04:17:00;;;;;;;18.02;12.75;;;3.10;99.90;;;;;;5067291;28;20119;-81
2022/03/11 04:19:26;;;;;;;20.83;13.25;;;3.20;99.90;;;;;;5068755;28;20107;-83
2022/03/11 04:21:51;;;;;;;20.40;13.80;;;3.10;99.90;;;;;;5064195;28;20036;-82
2022/03/11 04:24:17;;;;;;;22.10;14.38;;;3.00;99.90;;;;;;5068174;28;20041;-82
2022/03/11 04:26:44;;;;;;;19.90;13.30;;;3.00;99.90;;;;;;5049923;28;20455;-82
2022/03/11 04:29:11;;;;;;;19.90;14.23;;;3.10;99.90;;;;;;5048417;28;20481;-82
2022/03/11 04:31:37;;;;;;;18.75;13.20;;;3.00;99.90;;;;;;5062498;28;20040;-82
2022/03/11 04:34:04;;;;;;;20.45;14.13;;;3.20;99.90;;;;;;5064195;28;20499;-82
2022/03/11 04:36:32;;;;;;;22.60;14.88;;;3.00;99.90;;;;;;5065460;28;20089;-82
2022/03/11 04:38:59;;;;;;;20.58;13.95;;;3.10;99.90;;;;;;5067470;28;20403;-82
2022/03/11 04:41:28;;;;;;;21.13;15.18;;;3.80;99.90;;;;;;5066328;28;20455;-82
2022/03/11 04:43:53;;;;;;;19.95;13.90;;;3.00;99.90;;;;;;5062804;28;20040;-82
2022/03/11 04:46:19;;;;;;;20.40;14.63;;;3.00;99.90;;;;;;5051201;28;20551;-82
2022/03/11 04:48:47;;;;;;;23.10;14.23;;;3.00;99.90;;;;;;5067108;28;20053;-81
2022/03/11 04:51:14;;;;;;;23.40;15.38;;;3.00;99.90;;;;;;5042371;28;20440;-82
2022/03/11 04:53:39;;;;;;;23.50;15.23;;;3.00;99.90;;;;;;5049059;28;20032;-81
2022/03/11 04:56:05;;;;;;;24.77;15.23;;;2.90;99.90;;;;;;5032845;28;20040;-81
2022/03/11 04:58:31;;;;;;;22.50;14.95;;;3.00;99.90;;;;;;5069182;28;20044;-82
2022/03/11 05:00:56;;;;;;;21.67;14.30;;;3.00;99.90;;;;;;5065141;28;20443;-81
2022/03/11 05:03:22;;;;;;;24.77;14.23;;;2.90;99.90;;;;;;5066245;28;20113;-81
2022/03/11 05:05:47;;;;;;;24.67;14.88;;;2.90;99.90;;;;;;5069514;28;20079;-82
2022/03/11 05:08:13;;;;;;;21.95;15.55;;;2.90;99.90;;;;;;5048338;28;20044;-82
2022/03/11 05:10:38;;;;;;;20.17;14.57;;;2.90;99.90;;;;;;5066981;28;20048;-82
2022/03/11 05:13:04;;;;;;;22.23;15.80;;;2.90;99.90;;;;;;5065869;28;20044;-83
2022/03/11 05:15:30;;;;;;;21.67;15.30;;;2.90;99.90;;;;;;5050177;28;20044;-82
2022/03/11 05:17:56;;;;;;;25.65;15.95;;;2.90;99.90;;;;;;5066631;28;20048;-82
2022/03/11 05:20:24;;;;;;;24.10;14.70;;;2.80;99.90;;;;;;5066302;28;20543;-83
2022/03/11 05:22:50;;;;;;;24.25;15.23;;;2.80;99.90;;;;;;5069920;28;20124;-83
2022/03/11 05:25:16;;;;;;;23.42;14.48;;;2.80;99.90;;;;;;5067499;28;20048;-82
2022/03/11 05:27:41;;;;;;;24.42;16.17;;;3.10;99.90;;;;;;5051273;28;20055;-81
2022/03/11 05:30:08;;;;;;;21.38;15.68;;;2.80;99.90;;;;;;5067734;28;20040;-82
2022/03/11 05:32:40;;;;;;;22.80;15.43;;;2.90;99.90;;;;;;5047491;28;20104;-82
2022/03/11 05:35:06;;;;;;;25.98;15.32;;;3.00;99.90;;;;;;5059615;28;20045;-82
2022/03/11 05:37:31;;;;;;;23.08;15.30;;;2.80;99.90;;;;;;5066858;28;20033;-82
2022/03/11 05:39:57;;;;;;;22.13;15.10;;;2.70;99.90;;;;;;5063373;28;20086;-81
2022/03/11 05:42:22;;;;;;;21.23;14.85;;;2.80;99.90;;;;;;5051436;28;20067;-82
2022/03/11 05:44:48;;;;;;;25.38;15.10;;;3.10;99.90;;;;;;5051106;28;20036;-82
2022/03/11 05:47:14;;;;;;;24.88;15.73;;;2.80;99.90;;;;;;5066971;28;20045;-82
2022/03/11 05:49:39;;;;;;;24.08;16.55;;;2.80;99.90;;;;;;5064694;28;20483;-82
2022/03/11 05:52:05;;;;;;;26.73;15.00;;;2.80;99.90;;;;;;5059678;28;20072;-82
2022/03/11 05:54:31;;;;;;;22.60;14.63;;;2.80;99.90;;;;;;5065402;28;20037;-81
2022/03/11 05:56:56;;;;;;;21.88;15.27;;;2.80;99.90;;;;;;5065106;28;20555;-82
2022/03/11 05:59:22;;;;;;;18.83;14.80;;;2.80;99.90;;;;;;5061648;28;20036;-81
2022/03/11 06:01:48;;;;;;;21.88;15.48;;;2.80;99.90;;;;;;5075965;28;20036;-82
2022/03/11 06:04:13;;;;;;;24.95;16.13;;;2.80;99.90;;;;;;5067917;28;20086;-81
2022/03/11 06:06:39;;;;;;;23.83;16.25;;;2.80;99.90;;;;;;5066910;28;20044;-80
2022/03/11 06:09:05;;;;;;;23.00;15.57;;;2.80;99.90;;;;;;5067864;28;20048;-80
2022/03/11 06:11:30;;;;;;;24.38;15.25;;;2.70;99.90;;;;;;5050438;28;20041;-81
2022/03/11 06:13:56;;;;;;;23.42;15.18;;;2.70;99.90;;;;;;5066374;28;20044;-81
2022/03/11 06:16:22;;;;;;;22.52;15.40;;;2.70;99.90;;;;;;5066173;28;20516;-82
2022/03/11 06:18:48;;;;;;;21.13;15.40;;;2.60;99.90;;;;;;5059360;28;20447;-82
2022/03/11 06:21:14;;;;;;;25.05;15.25;;;2.60;99.90;;;;;;5043640;28;20041;-81
2022/03/11 06:23:39;;;;;;;22.05;15.05;;;2.70;99.90;;;;;;5064116;28;20047;-82
2022/03/11 06:26:05;;;;;;;23.33;15.60;;;2.70;99.90;;;;;;5049001;28;20135;-81
2022/03/11 06:28:31;;;;;;;27.65;15.55;;;2.70;99.90;;;;;;5062847;28;20045;-81
2022/03/11 06:30:57;;;;;;;25.40;15.40;;;2.70;99.90;;;;;;5041853;28;20040;-81
2022/03/11 06:33:22;;;;;;;23.98;15.60;;;2.70;99.90;;;;;;5061824;28;20408;-80
2022/03/11 06:35:49;;;;;;;22.27;15.27;;;2.80;99.90;;;;;;5065296;28;20044;-81
2022/03/11 06:38:15;;;;;;;24.10;15.57;;;2.70;99.90;;;;;;5072811;28;20055;-81
2022/03/11 06:40:40;;;;;;;24.50;15.23;;;2.70;99.90;;;;;;5072141;28;20040;-82
2022/03/11 06:43:06;;;;;;;23.83;16.20;;;2.70;99.90;;;;;;5071854;28;20495;-82
2022/03/11 06:45:31;;;;;;;24.95;15.27;;;2.70;99.90;;;;;;5056481;28;20039;-81
2022/03/11 06:47:57;;;;;;;24.17;16.90;;;2.80;99.90;;;;;;4357230;28;10000801;-81
2022/03/11 06:50:24;;;;;;;19.15;14.07;;;2.80;99.90;;;;;;5077451;28;20048;-82
2022/03/11 06:52:49;;;;;;;23.02;15.10;;;2.80;99.90;;;;;;5079062;28;20054;-82
2022/03/11 06:55:15;;;;;;;23.10;15.07;;;2.80;99.90;;;;;;5077952;28;20041;-82
2022/03/11 06:57:41;;;;;;;24.33;14.85;;;2.90;99.90;;;;;;5071052;28;20047;-81
2022/03/11 07:00:08;;;;;;;21.98;15.68;;;3.40;99.90;;;;;;5071509;28;20428;-82
2022/03/11 07:02:36;;;;;;;23.42;16.60;;;2.90;99.90;;;;;;5071593;28;20144;-82
2022/03/11 07:05:02;;;;;;;25.80;14.93;;;3.10;99.90;;;;;;5070691;28;20070;-82
2022/03/11 07:07:30;;;;;;;24.95;16.30;;;3.00;99.90;;;;;;5070440;28;20036;-81
2022/03/11 07:09:55;;;;;;;22.25;15.20;;;3.00;99.90;;;;;;5069595;28;20448;-82
2022/03/11 07:12:21;;;;;;;22.63;15.15;;;3.10;99.90;;;;;;5071253;28;20040;-87
2022/03/11 07:14:48;;;;;;;21.45;15.25;;;;;;;;;;5076578;28;20518;-81
2022/03/11 07:17:14;;;;;;;24.13;15.13;;;3.10;99.90;;;;;;5060967;28;20029;-81
2022/03/11 07:19:40;;;;;;;23.23;13.93;;;3.30;99.90;;;;;;5072199;28;20075;-80
2022/03/11 07:22:06;;;;;;;21.58;15.15;;;3.10;99.90;;;;;;5072667;28;20044;-80
2022/03/11 07:24:32;;;;;;;21.35;14.18;;;3.20;99.90;;;;;;5053907;28;20085;-80
2022/03/11 07:26:58;;;;;;;26.75;15.38;;;3.20;99.90;;;;;;5070446;28;20423;-80
2022/03/11 07:29:24;;;;;;;21.65;14.68;;;3.20;99.90;;;;;;5076686;28;20359;-80
2022/03/11 07:31:49;;;;;;;20.50;13.90;;;3.40;99.90;;;;;;5070402;28;20545;-80
2022/03/11 07:34:16;;;;;;;22.42;14.77;;;3.40;99.90;;;;;;5064255;28;20139;-79
2022/03/11 07:36:42;;;;;;;22.70;16.05;;;3.50;99.90;;;;;;5064377;28;20487;-81
2022/03/11 07:39:09;;;;;;;21.42;14.40;;;3.50;99.90;;;;;;5070715;28;20041;-81
2022/03/11 07:41:36;;;;;;;23.63;15.90;;;3.50;99.90;;;;;;5067996;28;20419;-80
2022/03/11 07:44:02;;;;;;;21.33;14.77;;;3.60;99.90;;;;;;5105323;28;20051;-80
2022/03/11 07:46:29;;;;;;;23.35;14.85;;;3.60;99.90;;;;;;5069069;28;20048;-81
2022/03/11 07:48:55;;;;;;;22.80;15.45;;;3.70;99.90;;;;;;5069025;28;20089;-81
2022/03/11 07:51:21;;;;;;;28.27;14.93;;;3.70;99.90;;;;;;5073151;28;20082;-80
2022/03/11 07:53:47;;;;;;;25.20;14.65;;;3.70;99.90;;;;;;5071960;28;20759;-81
2022/03/11 07:56:15;;;;;;;24.38;15.63;;;3.80;99.90;;;;;;5078231;28;20119;-81
2022/03/11 07:58:41;;;;;;;27.77;15.88;;;3.90;99.90;;;;;;5073402;28;20062;-81
2022/03/11 08:01:12;;;;;;;20.77;14.93;;;4.00;99.90;;;;;;5056498;28;20044;-80
2022/03/11 08:03:39;;;;;;;23.15;16.00;;;4.00;99.90;;;;;;5055927;28;20048;-81
2022/03/11 08:06:08;;;;;;;23.17;15.20;;;4.00;99.90;;;;;;5074729;28;20044;-81
2022/03/11 08:08:34;;;;;;;21.73;14.23;;;4.10;99.90;;;;;;5070883;28;20408;-81
2022/03/11 08:11:00;;;;;;;23.00;15.90;;;4.20;99.90;;;;;;5072492;28;20040;-82
2022/03/11 08:13:26;;;;;;;22.23;15.80;;;4.20;99.90;;;;;;5068345;28;20051;-81
2022/03/11 08:15:52;;;;;;;21.63;14.70;;;4.20;99.90;;;;;;5067780;28;20087;-81
2022/03/11 08:18:17;;;;;;;23.70;15.95;;;4.30;99.90;;;;;;5073547;28;20611;-81
2022/03/11 08:20:43;;;;;;;21.20;15.80;;;4.40;99.90;;;;;;5072526;28;20094;-81
2022/03/11 08:23:09;;;;;;;25.40;16.23;;;4.40;99.90;;;;;;5055165;28;20079;-81
2022/03/11 08:25:36;;;;;;;23.98;15.98;;;5.00;99.90;;;;;;5053736;28;20416;-81
2022/03/11 08:28:04;;;;;;;21.48;13.98;;;4.60;99.90;;;;;;5072444;28;20118;-80
2022/03/11 08:30:31;;;;;;;21.83;15.73;;;4.70;99.90;;;;;;5062052;28;20043;-80
2022/03/11 08:33:00;;;;;;;21.98;14.98;;;4.70;99.90;;;;;;5070565;28;20053;-80
2022/03/11 08:35:27;;;;;;;20.88;14.43;;;4.80;99.90;;;;;;5054295;28;20044;-81
2022/03/11 08:37:53;;;;;;;21.20;15.68;;;4.90;99.90;;;;;;5076140;28;20051;-81
2022/03/11 08:40:23;;;;;;;21.70;14.10;;;5.00;99.90;;;;;;5063672;28;20051;-81
2022/03/11 08:42:50;;;;;;;21.88;14.65;;;5.00;99.90;;;;;;5070611;28;20070;-81
2022/03/11 08:45:16;;;;;;;21.45;14.73;;;5.80;99.90;;;;;;5063753;28;20041;-81
2022/03/11 08:47:42;;;;;;;20.55;14.18;;;4.70;99.90;;;;;;5068856;28;20041;-81
2022/03/11 08:50:08;;;;;;;20.60;14.25;;;5.20;99.90;;;;;;5078449;28;20052;-82
2022/03/11 08:52:34;;;;;;;25.98;15.05;;;5.30;99.90;;;;;;5074704;28;20463;-81
2022/03/11 08:55:00;;;;;;;22.70;15.40;;;5.30;99.90;;;;;;5055886;28;20142;-81
2022/03/11 08:57:26;;;;;;;19.88;14.40;;;5.30;99.90;;;;;;5071192;28;20075;-81
2022/03/11 08:59:55;;;;;;;19.50;14.65;;;5.50;99.90;;;;;;5072358;28;20396;-81
2022/03/11 09:02:22;;;;;;;25.77;14.90;;;5.50;99.90;;;;;;5077464;28;20048;-81
2022/03/11 09:04:48;;;;;;;22.77;14.50;;;5.60;99.90;;;;;;5057624;28;20126;-82
2022/03/11 09:07:14;;;;;;;19.95;14.48;;;5.60;99.90;;;;;;5074215;28;20120;-81
2022/03/11 09:09:40;;;;;;;22.88;15.10;;;5.70;99.90;;;;;;5056816;28;20484;-81
2022/03/11 09:12:06;;;;;;;23.08;15.15;;;5.80;99.90;;;;;;5047786;28;20063;-81
2022/03/11 09:14:32;;;;;;;21.13;14.75;;;5.90;99.90;;;;;;5075064;28;20088;-81
2022/03/11 09:16:59;;;;;;;19.85;14.80;;;5.90;99.90;;;;;;5073027;28;20043;-81
2022/03/11 09:19:25;;;;;;;22.30;14.93;;;5.90;99.90;;;;;;5070565;28;20084;-81
2022/03/11 09:21:50;;;;;;;20.33;14.60;;;6.10;99.90;;;;;;5075293;28;20041;-81
2022/03/11 09:24:16;;;;;;;19.50;14.32;;;6.00;99.90;;;;;;5052422;28;20480;-81
2022/03/11 09:26:45;;;;;;;21.25;15.55;;;6.30;99.90;;;;;;5069711;28;20444;-82
2022/03/11 09:29:11;;;;;;;20.55;15.20;;;6.30;99.90;;;;;;5073704;28;20060;-80
2022/03/11 09:31:37;;;;;;;21.13;14.43;;;6.30;99.90;;;;;;5075635;28;20032;-80
2022/03/11 09:34:02;;;;;;;22.80;15.50;;;6.40;99.90;;;;;;5079988;28;20044;-81
2022/03/11 09:36:28;;;;;;;20.40;14.32;;;6.50;99.90;;;;;;5074763;28;20048;-81
2022/03/11 09:38:54;;;;;;;22.40;16.05;;;6.60;99.90;;;;;;5068624;28;20087;-81
2022/03/11 09:41:20;;;;;;;21.33;14.23;;;6.60;99.90;;;;;;5072069;28;20033;-80
2022/03/11 09:43:46;;;;;;;21.65;15.85;;;6.70;99.90;;;;;;5075913;28;20052;-81
2022/03/11 09:46:13;;;;;;;25.35;16.55;;;6.80;99.90;;;;;;5076514;28;20044;-81
2022/03/11 09:48:41;;;;;;;24.92;16.30;;;6.90;99.90;;;;;;5073658;28;20044;-81
2022/03/11 09:51:09;;;;;;;21.73;14.65;;;7.00;99.90;;;;;;5077920;28;20117;-81
2022/03/11 09:53:36;;;;;;;22.80;14.45;;;7.10;99.90;;;;;;5052273;28;20060;-81
2022/03/11 09:56:01;;;;;;;25.25;16.65;;;7.00;99.90;;;;;;5072941;28;20040;-81
2022/03/11 09:58:27;;;;;;;26.02;15.50;;;7.10;99.90;;;;;;5072922;28;20045;-80
2022/03/11 10:00:53;;;;;;;19.27;14.20;;;7.10;99.90;;;;;;5073267;28;20040;-80
2022/03/11 10:03:18;;;;;;;21.58;15.65;;;7.20;99.90;;;;;;5069193;28;20053;-80
2022/03/11 10:05:44;;;;;;;24.00;15.45;;;7.30;99.60;;;;;;5068555;28;20044;-80
2022/03/11 10:08:10;;;;;;;22.83;15.05;;;7.30;99.60;;;;;;5052289;28;20052;-80
2022/03/11 10:10:38;;;;;;;20.52;15.05;;;7.80;99.30;;;;;;5069935;28;20404;-81
2022/03/11 10:13:07;;;;;;;24.27;15.32;;;7.20;99.30;;;;;;5067914;28;20044;-81
2022/03/11 10:15:32;;;;;;;20.92;14.65;;;7.50;98.50;;;;;;5073023;28;20506;-81
2022/03/11 10:18:02;;;;;;;23.75;15.77;;;7.60;98.60;;;;;;5074758;28;20036;-81
2022/03/11 10:20:29;;;;;;;21.60;14.13;;;7.60;98.50;;;;;;5073254;28;20032;-81
2022/03/11 10:22:56;;;;;;;21.17;15.45;;;7.70;98.40;;;;;;5075523;28;20044;-81
2022/03/11 10:25:25;;;;;;;21.90;14.65;;;7.80;98.10;;;;;;5077299;28;20471;-80
2022/03/11 10:28:02;;;;;;;26.55;16.33;;;7.80;97.80;;;;;;5049685;28;20048;-81
2022/03/11 10:30:30;;;;;;;21.13;14.73;;;7.90;97.80;;;;;;5076773;28;20044;-80
2022/03/11 10:32:59;;;;;;;26.63;16.65;;;7.40;97.50;;;;;;5074764;28;20040;-83
2022/03/11 10:35:34;;;;;;;21.73;15.88;;;8.00;97.30;;;;;;5066166;28;20092;-82
2022/03/11 10:38:10;;;;;;;23.17;15.63;;;8.00;97.30;;;;;;5064683;28;20102;-83
2022/03/11 10:40:48;;;;;;;21.95;15.48;;;8.10;97.80;;;;;;5067615;28;20484;-82
2022/03/11 10:43:19;;;;;;;20.85;15.50;;;8.20;97.30;;;;;;5067922;28;20491;-82
2022/03/11 10:45:53;;;;;;;19.95;14.52;;;8.20;97.00;;;;;;5049863;28;20652;-80
2022/03/11 10:48:39;;;;;;;;;;;8.30;96.80;;;;;;5073081;28;20090;-81
2022/03/11 10:51:10;;;;;;;21.67;14.35;;;8.40;96.80;;;;;;5092609;28;19927;-81
2022/03/11 10:53:38;;;;;;;19.15;13.57;;;8.50;96.70;;;;;;5033451;28;20052;-81
2022/03/11 10:56:07;;;;;;;21.88;14.95;;;8.60;96.50;;;;;;5066975;28;20132;-81
2022/03/11 10:58:33;;;;;;;24.95;14.38;;;8.70;95.80;;;;;;5057657;28;20128;-81
2022/03/11 11:00:58;;;;;;;26.85;15.73;;;8.80;95.50;;;;;;5066652;28;20139;-81
2022/03/11 11:03:25;;;;;;;21.05;14.50;;;8.90;95.70;;;;;;5068100;28;20051;-82
2022/03/11 11:05:55;;;;;;;20.50;15.38;;;9.00;95.10;;;;;;5067971;28;20056;-81
2022/03/11 11:08:21;;;;;;;22.90;14.45;;;9.10;94.40;;;;;;5040781;28;20044;-81
2022/03/11 11:10:48;;;;;;;23.67;14.93;;;9.20;93.60;;;;;;5068238;28;20040;-81
2022/03/11 11:13:13;;;;;;;20.30;15.02;;;9.20;93.70;;;;;;5068033;28;20050;-81
2022/03/11 11:15:39;;;;;;;21.92;14.93;;;9.20;93.50;;;;;;5069274;28;20044;-81
2022/03/11 11:18:11;;;;;;;18.50;13.90;;;9.30;92.90;;;;;;5069278;28;20053;-82
2022/03/11 11:20:46;;;;;;;20.27;13.82;;;9.30;93.20;;;;;;5052443;28;20036;-81
2022/03/11 11:23:13;;;;;;;19.90;14.52;;;9.40;92.90;;;;;;5071139;28;20076;-81
2022/03/11 11:25:43;;;;;;;21.30;14.50;;;10.80;93.40;;;;;;5055838;28;20127;-82
2022/03/11 11:28:14;;;;;;;21.20;15.50;;;10.90;93.40;;;;;;5062335;28;20052;-82
2022/03/11 11:30:40;;;;;;;20.98;14.27;;;9.70;92.80;;;;;;5038303;28;20135;-82
2022/03/11 11:33:06;;;;;;;24.95;16.17;;;9.80;93.30;;;;;;5073064;28;20119;-82
2022/03/11 11:35:38;;;;;;;18.08;14.20;;;9.90;92.60;;;;;;5071935;28;20120;-82
2022/03/11 11:38:27;;;;;;;19.55;14.50;;;10.00;91.20;;;;;;5053280;28;20526;-82
2022/03/11 11:40:54;;;;;;;22.02;15.45;;;10.00;91.20;;;;;;5071941;28;20051;-81
2022/03/11 11:43:27;;;;;;;21.98;15.20;;;10.00;91.30;;;;;;5072083;28;20059;-81
2022/03/11 11:45:54;;;;;;;20.83;15.55;;;10.10;90.90;;;;;;5069527;28;20033;-81
2022/03/11 11:48:32;;;;;;;19.05;14.82;;;10.20;91.00;;;;;;5068631;28;20492;-81
2022/03/11 11:51:03;;;;;;;19.55;15.65;;;10.30;90.40;;;;;;5067956;28;20044;-81
2022/03/11 11:53:36;;;;;;;21.38;15.63;;;10.30;90.40;;;;;;5060389;28;20124;-80
2022/03/11 11:56:27;;;;;;;19.67;15.35;;;10.30;90.00;;;;;;5087817;28;20041;-81
2022/03/11 11:58:57;;;;;;;19.30;14.45;;;10.40;89.70;;;;;;5070436;28;20492;-81
2022/03/11 12:01:46;;;;;;;25.67;16.10;;;10.20;89.40;;;;;;5054424;28;20052;-81
2022/03/11 12:04:32;;;;;;;22.60;14.93;;;10.50;87.10;;;;;;5079856;28;20051;-80
2022/03/11 12:07:03;;;;;;;22.35;15.43;;;10.50;87.90;;;;;;5062849;28;20044;-81
2022/03/11 12:09:38;;;;;;;21.75;14.60;;;10.70;88.50;;;;;;5072365;28;20033;-81
2022/03/11 12:12:30;;;;;;;;;;;10.90;88.30;;;;;;5053991;28;20503;-81
2022/03/11 12:15:04;;;;;;;20.90;13.80;;;10.80;88.10;;;;;;5070432;28;19974;-81
2022/03/11 12:17:39;;;;;;;24.33;14.63;;;11.00;87.50;;;;;;5065834;28;20074;-81
2022/03/11 12:20:45;;;;;;;18.48;14.23;;;11.10;85.70;;;;;;5071587;28;20590;-81
2022/03/11 12:23:14;;;;;;;19.95;14.13;;;11.10;85.60;;;;;;5057038;28;20076;-81
2022/03/11 12:25:57;;;;;;;21.38;14.57;;;11.20;85.00;;;;;;5070268;28;20046;-81
2022/03/11 12:28:35;;;;;;;19.25;13.75;;;11.30;84.50;;;;;;5047457;28;20053;-82
2022/03/11 12:31:14;;;;;;;20.30;13.68;;;11.40;82.10;;;;;;5070511;28;20060;-82
2022/03/11 12:33:45;;;;;;;17.98;13.80;;;11.30;81.90;;;;;;5065487;28;20135;-81
2022/03/11 12:36:18;;;;;;;19.13;13.65;;;11.40;81.90;;;;;;5054274;28;20048;-81
2022/03/11 12:38:45;;;;;;;18.70;14.57;;;11.40;81.10;;;;;;5054617;28;20478;-81
2022/03/11 12:41:22;;;;;;;16.88;14.02;;;11.60;82.10;;;;;;5064933;28;20059;-88